sensor_id;sensor_type;location;lat;lon;timestamp;P1;durP1;ratioP1;P2;durP2;ratioP2
10126;SDS011;13080;42.608;23.362;2023-10-09T00:01:40;10.25;;;1.50;;
10126;SDS011;13080;42.608;23.362;2023-10-09T00:04:09;9.18;;;2.10;;
10126;SDS011;13080;42.608;23.362;2023-10-09T00:06:37;6.18;;;1.48;;
10126;SDS011;13080;42.608;23.362;2023-10-09T00:09:04;7.80;;;1.67;;
10126;SDS011;13080;42.608;23.362;2023-10-09T00:11:50;5.28;;;1.40;;
10126;SDS011;13080;42.608;23.362;2023-10-09T00:14:22;8.52;;;1.55;;
10126;SDS011;13080;42.608;23.362;2023-10-09T00:16:50;12.23;;;2.88;;
10126;SDS011;13080;42.608;23.362;2023-10-09T00:19:29;3.15;;;1.30;;
10126;SDS011;13080;42.608;23.362;2023-10-09T00:21:58;7.72;;;1.92;;
10126;SDS011;13080;42.608;23.362;2023-10-09T00:24:31;4.65;;;1.80;;
10126;SDS011;13080;42.608;23.362;2023-10-09T00:26:58;6.22;;;1.75;;
10126;SDS011;13080;42.608;23.362;2023-10-09T00:29:37;5.95;;;1.60;;
10126;SDS011;13080;42.608;23.362;2023-10-09T00:32:11;6.10;;;1.80;;
10126;SDS011;13080;42.608;23.362;2023-10-09T00:37:15;7.07;;;1.45;;
10126;SDS011;13080;42.608;23.362;2023-10-09T00:39:47;4.45;;;1.50;;
10126;SDS011;13080;42.608;23.362;2023-10-09T00:42:21;2.70;;;1.33;;
10126;SDS011;13080;42.608;23.362;2023-10-09T00:47:21;3.92;;;1.40;;
10126;SDS011;13080;42.608;23.362;2023-10-09T00:49:52;4.03;;;1.65;;
10126;SDS011;13080;42.608;23.362;2023-10-09T00:52:25;3.28;;;1.30;;
10126;SDS011;13080;42.608;23.362;2023-10-09T00:54:57;3.90;;;0.98;;
10126;SDS011;13080;42.608;23.362;2023-10-09T00:57:29;7.35;;;1.40;;
10126;SDS011;13080;42.608;23.362;2023-10-09T00:59:59;4.38;;;1.38;;
10126;SDS011;13080;42.608;23.362;2023-10-09T01:02:28;5.13;;;1.40;;
10126;SDS011;13080;42.608;23.362;2023-10-09T01:05:02;8.10;;;2.28;;
10126;SDS011;13080;42.608;23.362;2023-10-09T01:07:45;2.92;;;1.20;;
10126;SDS011;13080;42.608;23.362;2023-10-09T01:10:14;6.47;;;1.30;;
10126;SDS011;13080;42.608;23.362;2023-10-09T01:12:42;2.95;;;1.05;;
10126;SDS011;13080;42.608;23.362;2023-10-09T01:15:12;3.40;;;1.20;;
10126;SDS011;13080;42.608;23.362;2023-10-09T01:18:02;4.35;;;1.73;;
10126;SDS011;13080;42.608;23.362;2023-10-09T01:20:33;6.07;;;1.65;;
10126;SDS011;13080;42.608;23.362;2023-10-09T01:23:09;3.75;;;1.27;;
10126;SDS011;13080;42.608;23.362;2023-10-09T01:25:36;6.05;;;1.60;;
10126;SDS011;13080;42.608;23.362;2023-10-09T01:28:09;2.38;;;1.13;;
10126;SDS011;13080;42.608;23.362;2023-10-09T01:30:41;3.67;;;1.20;;
10126;SDS011;13080;42.608;23.362;2023-10-09T01:33:09;3.78;;;1.20;;
10126;SDS011;13080;42.608;23.362;2023-10-09T01:35:47;3.80;;;1.50;;
10126;SDS011;13080;42.608;23.362;2023-10-09T01:38:18;7.85;;;1.33;;
10126;SDS011;13080;42.608;23.362;2023-10-09T01:40:55;2.45;;;1.35;;
10126;SDS011;13080;42.608;23.362;2023-10-09T01:43:30;5.30;;;1.15;;
10126;SDS011;13080;42.608;23.362;2023-10-09T01:45:59;1.92;;;1.02;;
10126;SDS011;13080;42.608;23.362;2023-10-09T01:48:29;4.53;;;1.10;;
10126;SDS011;13080;42.608;23.362;2023-10-09T01:50:58;2.58;;;1.35;;
10126;SDS011;13080;42.608;23.362;2023-10-09T01:53:26;5.10;;;1.00;;
10126;SDS011;13080;42.608;23.362;2023-10-09T01:56:07;3.67;;;1.13;;
10126;SDS011;13080;42.608;23.362;2023-10-09T01:58:39;4.85;;;1.55;;
10126;SDS011;13080;42.608;23.362;2023-10-09T02:01:07;4.68;;;1.23;;
10126;SDS011;13080;42.608;23.362;2023-10-09T02:03:35;2.95;;;1.30;;
10126;SDS011;13080;42.608;23.362;2023-10-09T02:06:03;3.35;;;1.50;;
10126;SDS011;13080;42.608;23.362;2023-10-09T02:08:51;2.80;;;1.05;;
10126;SDS011;13080;42.608;23.362;2023-10-09T02:11:18;3.85;;;1.45;;
10126;SDS011;13080;42.608;23.362;2023-10-09T02:13:50;4.25;;;1.23;;
10126;SDS011;13080;42.608;23.362;2023-10-09T02:16:22;4.97;;;1.15;;
10126;SDS011;13080;42.608;23.362;2023-10-09T02:18:54;3.70;;;1.70;;
10126;SDS011;13080;42.608;23.362;2023-10-09T02:21:24;2.85;;;1.20;;
10126;SDS011;13080;42.608;23.362;2023-10-09T02:23:59;4.28;;;1.40;;
10126;SDS011;13080;42.608;23.362;2023-10-09T02:26:31;3.08;;;1.20;;
10126;SDS011;13080;42.608;23.362;2023-10-09T02:29:19;8.30;;;1.20;;
10126;SDS011;13080;42.608;23.362;2023-10-09T02:31:49;1.83;;;0.80;;
10126;SDS011;13080;42.608;23.362;2023-10-09T02:34:18;5.47;;;1.20;;
10126;SDS011;13080;42.608;23.362;2023-10-09T02:36:47;2.75;;;1.02;;
10126;SDS011;13080;42.608;23.362;2023-10-09T02:39:23;2.95;;;1.15;;
10126;SDS011;13080;42.608;23.362;2023-10-09T02:41:51;5.03;;;1.52;;
10126;SDS011;13080;42.608;23.362;2023-10-09T02:44:25;2.65;;;1.38;;
10126;SDS011;13080;42.608;23.362;2023-10-09T02:46:55;2.80;;;1.00;;
10126;SDS011;13080;42.608;23.362;2023-10-09T02:49:23;2.13;;;0.82;;
10126;SDS011;13080;42.608;23.362;2023-10-09T02:51:52;1.33;;;0.88;;
10126;SDS011;13080;42.608;23.362;2023-10-09T02:54:19;4.85;;;0.90;;
10126;SDS011;13080;42.608;23.362;2023-10-09T02:57:02;5.55;;;1.40;;
10126;SDS011;13080;42.608;23.362;2023-10-09T02:59:32;3.72;;;1.10;;
10126;SDS011;13080;42.608;23.362;2023-10-09T03:01:59;3.05;;;1.25;;
10126;SDS011;13080;42.608;23.362;2023-10-09T03:04:26;1.65;;;1.05;;
10126;SDS011;13080;42.608;23.362;2023-10-09T03:06:55;2.42;;;1.00;;
10126;SDS011;13080;42.608;23.362;2023-10-09T03:09:22;3.15;;;1.30;;
10126;SDS011;13080;42.608;23.362;2023-10-09T03:11:53;7.53;;;1.30;;
10126;SDS011;13080;42.608;23.362;2023-10-09T03:14:28;4.13;;;1.00;;
10126;SDS011;13080;42.608;23.362;2023-10-09T03:16:56;2.78;;;0.85;;
10126;SDS011;13080;42.608;23.362;2023-10-09T03:19:23;4.15;;;1.20;;
10126;SDS011;13080;42.608;23.362;2023-10-09T03:21:51;1.95;;;1.10;;
10126;SDS011;13080;42.608;23.362;2023-10-09T03:24:18;3.47;;;1.00;;
10126;SDS011;13080;42.608;23.362;2023-10-09T03:26:47;1.27;;;0.73;;
10126;SDS011;13080;42.608;23.362;2023-10-09T03:29:15;3.47;;;0.90;;
10126;SDS011;13080;42.608;23.362;2023-10-09T03:31:46;3.22;;;1.15;;
10126;SDS011;13080;42.608;23.362;2023-10-09T03:34:15;4.32;;;0.95;;
10126;SDS011;13080;42.608;23.362;2023-10-09T03:36:43;1.85;;;0.95;;
10126;SDS011;13080;42.608;23.362;2023-10-09T03:39:10;4.15;;;0.93;;
10126;SDS011;13080;42.608;23.362;2023-10-09T03:41:50;1.80;;;0.93;;
10126;SDS011;13080;42.608;23.362;2023-10-09T03:44:19;1.77;;;1.02;;
10126;SDS011;13080;42.608;23.362;2023-10-09T03:46:48;3.83;;;1.05;;
10126;SDS011;13080;42.608;23.362;2023-10-09T03:49:16;1.80;;;0.90;;
10126;SDS011;13080;42.608;23.362;2023-10-09T03:54:15;3.38;;;1.10;;
10126;SDS011;13080;42.608;23.362;2023-10-09T03:56:45;2.67;;;0.93;;
10126;SDS011;13080;42.608;23.362;2023-10-09T03:59:15;4.93;;;1.15;;
10126;SDS011;13080;42.608;23.362;2023-10-09T04:01:42;1.67;;;0.77;;
10126;SDS011;13080;42.608;23.362;2023-10-09T04:04:10;3.03;;;0.82;;
10126;SDS011;13080;42.608;23.362;2023-10-09T04:06:39;1.10;;;0.80;;
10126;SDS011;13080;42.608;23.362;2023-10-09T04:09:07;2.88;;;1.10;;
10126;SDS011;13080;42.608;23.362;2023-10-09T04:11:53;5.72;;;0.65;;
10126;SDS011;13080;42.608;23.362;2023-10-09T04:14:39;1.58;;;0.50;;
10126;SDS011;13080;42.608;23.362;2023-10-09T04:17:14;2.22;;;0.85;;
10126;SDS011;13080;42.608;23.362;2023-10-09T04:19:56;1.98;;;0.73;;
10126;SDS011;13080;42.608;23.362;2023-10-09T04:22:37;2.20;;;0.80;;
10126;SDS011;13080;42.608;23.362;2023-10-09T04:25:08;1.10;;;0.70;;
10126;SDS011;13080;42.608;23.362;2023-10-09T04:27:40;1.67;;;1.05;;
10126;SDS011;13080;42.608;23.362;2023-10-09T04:30:07;2.80;;;0.85;;
10126;SDS011;13080;42.608;23.362;2023-10-09T04:32:40;3.65;;;0.82;;
10126;SDS011;13080;42.608;23.362;2023-10-09T04:35:11;1.50;;;0.70;;
10126;SDS011;13080;42.608;23.362;2023-10-09T04:37:48;5.45;;;0.70;;
10126;SDS011;13080;42.608;23.362;2023-10-09T04:40:25;1.50;;;0.70;;
10126;SDS011;13080;42.608;23.362;2023-10-09T04:43:19;1.73;;;0.90;;
10126;SDS011;13080;42.608;23.362;2023-10-09T04:45:51;1.73;;;1.00;;
10126;SDS011;13080;42.608;23.362;2023-10-09T04:48:31;2.22;;;0.90;;
10126;SDS011;13080;42.608;23.362;2023-10-09T04:51:04;2.42;;;0.85;;
10126;SDS011;13080;42.608;23.362;2023-10-09T04:53:45;1.05;;;0.82;;
10126;SDS011;13080;42.608;23.362;2023-10-09T04:56:25;1.15;;;0.70;;
10126;SDS011;13080;42.608;23.362;2023-10-09T04:58:58;1.52;;;0.68;;
10126;SDS011;13080;42.608;23.362;2023-10-09T05:01:34;1.40;;;0.70;;
10126;SDS011;13080;42.608;23.362;2023-10-09T05:04:08;1.30;;;0.77;;
10126;SDS011;13080;42.608;23.362;2023-10-09T05:06:52;1.55;;;1.10;;
10126;SDS011;13080;42.608;23.362;2023-10-09T05:09:22;1.40;;;0.95;;
10126;SDS011;13080;42.608;23.362;2023-10-09T05:11:49;1.88;;;1.20;;
10126;SDS011;13080;42.608;23.362;2023-10-09T05:14:34;1.05;;;0.70;;
10126;SDS011;13080;42.608;23.362;2023-10-09T05:17:19;1.15;;;0.70;;
10126;SDS011;13080;42.608;23.362;2023-10-09T05:19:50;1.73;;;0.70;;
10126;SDS011;13080;42.608;23.362;2023-10-09T05:22:45;1.45;;;0.60;;
10126;SDS011;13080;42.608;23.362;2023-10-09T05:25:22;2.05;;;0.73;;
10126;SDS011;13080;42.608;23.362;2023-10-09T05:28:03;0.98;;;0.80;;
10126;SDS011;13080;42.608;23.362;2023-10-09T05:30:52;0.50;;;0.43;;
10126;SDS011;13080;42.608;23.362;2023-10-09T05:33:28;0.70;;;0.60;;
10126;SDS011;13080;42.608;23.362;2023-10-09T05:35:58;6.00;;;0.75;;
10126;SDS011;13080;42.608;23.362;2023-10-09T05:38:40;1.90;;;0.70;;
10126;SDS011;13080;42.608;23.362;2023-10-09T05:41:11;2.15;;;0.90;;
10126;SDS011;13080;42.608;23.362;2023-10-09T05:43:52;1.00;;;0.50;;
10126;SDS011;13080;42.608;23.362;2023-10-09T05:46:38;2.35;;;0.77;;
10126;SDS011;13080;42.608;23.362;2023-10-09T05:49:24;2.42;;;0.80;;
10126;SDS011;13080;42.608;23.362;2023-10-09T05:52:10;1.00;;;0.60;;
10126;SDS011;13080;42.608;23.362;2023-10-09T05:54:51;1.65;;;0.80;;
10126;SDS011;13080;42.608;23.362;2023-10-09T05:57:41;4.10;;;0.70;;
10126;SDS011;13080;42.608;23.362;2023-10-09T06:00:25;0.57;;;0.50;;
10126;SDS011;13080;42.608;23.362;2023-10-09T06:03:11;1.35;;;0.75;;
10126;SDS011;13080;42.608;23.362;2023-10-09T06:05:51;0.93;;;0.77;;
10126;SDS011;13080;42.608;23.362;2023-10-09T06:08:29;1.25;;;0.77;;
10126;SDS011;13080;42.608;23.362;2023-10-09T06:11:11;1.75;;;0.82;;
10126;SDS011;13080;42.608;23.362;2023-10-09T06:13:52;1.83;;;0.98;;
10126;SDS011;13080;42.608;23.362;2023-10-09T06:16:28;1.52;;;0.93;;
10126;SDS011;13080;42.608;23.362;2023-10-09T06:19:08;2.58;;;1.00;;
10126;SDS011;13080;42.608;23.362;2023-10-09T06:21:37;1.33;;;0.80;;
10126;SDS011;13080;42.608;23.362;2023-10-09T06:24:20;1.27;;;0.80;;
10126;SDS011;13080;42.608;23.362;2023-10-09T06:26:49;2.03;;;0.98;;
10126;SDS011;13080;42.608;23.362;2023-10-09T06:29:49;2.15;;;1.10;;
10126;SDS011;13080;42.608;23.362;2023-10-09T06:32:38;2.25;;;1.00;;
10126;SDS011;13080;42.608;23.362;2023-10-09T06:35:16;1.80;;;0.90;;
10126;SDS011;13080;42.608;23.362;2023-10-09T06:37:43;1.92;;;1.13;;
10126;SDS011;13080;42.608;23.362;2023-10-09T06:40:29;1.05;;;0.73;;
10126;SDS011;13080;42.608;23.362;2023-10-09T06:43:15;4.82;;;1.17;;
10126;SDS011;13080;42.608;23.362;2023-10-09T06:45:52;0.98;;;0.70;;
10126;SDS011;13080;42.608;23.362;2023-10-09T06:48:44;2.65;;;0.93;;
10126;SDS011;13080;42.608;23.362;2023-10-09T06:51:22;1.15;;;0.90;;
10126;SDS011;13080;42.608;23.362;2023-10-09T06:54:06;6.82;;;1.30;;
10126;SDS011;13080;42.608;23.362;2023-10-09T06:56:34;1.10;;;0.70;;
10126;SDS011;13080;42.608;23.362;2023-10-09T06:59:19;1.33;;;1.10;;
10126;SDS011;13080;42.608;23.362;2023-10-09T07:01:48;3.22;;;1.00;;
10126;SDS011;13080;42.608;23.362;2023-10-09T07:04:36;1.13;;;0.80;;
10126;SDS011;13080;42.608;23.362;2023-10-09T07:07:13;1.67;;;1.02;;
10126;SDS011;13080;42.608;23.362;2023-10-09T07:09:41;1.48;;;0.75;;
10126;SDS011;13080;42.608;23.362;2023-10-09T07:12:28;1.52;;;0.80;;
10126;SDS011;13080;42.608;23.362;2023-10-09T07:14:58;1.80;;;0.90;;
10126;SDS011;13080;42.608;23.362;2023-10-09T07:17:49;2.40;;;0.90;;
10126;SDS011;13080;42.608;23.362;2023-10-09T07:20:17;1.33;;;0.80;;
10126;SDS011;13080;42.608;23.362;2023-10-09T07:22:59;1.58;;;0.95;;
10126;SDS011;13080;42.608;23.362;2023-10-09T07:25:39;3.90;;;0.90;;
10126;SDS011;13080;42.608;23.362;2023-10-09T07:28:20;2.30;;;0.77;;
10126;SDS011;13080;42.608;23.362;2023-10-09T07:31:02;0.93;;;0.75;;
10126;SDS011;13080;42.608;23.362;2023-10-09T07:33:29;1.83;;;0.80;;
10126;SDS011;13080;42.608;23.362;2023-10-09T07:36:20;1.00;;;0.90;;
10126;SDS011;13080;42.608;23.362;2023-10-09T07:39:01;2.70;;;1.00;;
10126;SDS011;13080;42.608;23.362;2023-10-09T07:41:33;2.80;;;0.80;;
10126;SDS011;13080;42.608;23.362;2023-10-09T07:44:05;1.08;;;0.75;;
10126;SDS011;13080;42.608;23.362;2023-10-09T07:46:59;2.70;;;0.93;;
10126;SDS011;13080;42.608;23.362;2023-10-09T07:49:48;2.78;;;0.88;;
10126;SDS011;13080;42.608;23.362;2023-10-09T07:52:17;2.30;;;0.73;;
10126;SDS011;13080;42.608;23.362;2023-10-09T07:54:48;1.48;;;1.00;;
10126;SDS011;13080;42.608;23.362;2023-10-09T07:57:28;1.77;;;1.33;;
10126;SDS011;13080;42.608;23.362;2023-10-09T08:00:04;2.05;;;0.77;;
10126;SDS011;13080;42.608;23.362;2023-10-09T08:02:58;0.88;;;0.70;;
10126;SDS011;13080;42.608;23.362;2023-10-09T08:05:27;1.20;;;0.93;;
10126;SDS011;13080;42.608;23.362;2023-10-09T08:07:58;1.55;;;0.90;;
10126;SDS011;13080;42.608;23.362;2023-10-09T08:10:50;1.33;;;0.80;;
10126;SDS011;13080;42.608;23.362;2023-10-09T08:16:25;0.70;;;0.70;;
10126;SDS011;13080;42.608;23.362;2023-10-09T08:19:01;1.23;;;0.85;;
10126;SDS011;13080;42.608;23.362;2023-10-09T08:21:45;5.50;;;0.93;;
10126;SDS011;13080;42.608;23.362;2023-10-09T08:24:33;1.08;;;0.60;;
10126;SDS011;13080;42.608;23.362;2023-10-09T08:27:07;1.27;;;0.82;;
10126;SDS011;13080;42.608;23.362;2023-10-09T08:29:51;2.28;;;0.68;;
10126;SDS011;13080;42.608;23.362;2023-10-09T08:32:37;1.95;;;0.65;;
10126;SDS011;13080;42.608;23.362;2023-10-09T08:35:08;1.90;;;0.90;;
10126;SDS011;13080;42.608;23.362;2023-10-09T08:37:55;1.30;;;0.75;;
10126;SDS011;13080;42.608;23.362;2023-10-09T08:40:27;3.50;;;1.00;;
10126;SDS011;13080;42.608;23.362;2023-10-09T08:43:01;3.72;;;1.00;;
10126;SDS011;13080;42.608;23.362;2023-10-09T08:45:35;1.42;;;0.98;;
10126;SDS011;13080;42.608;23.362;2023-10-09T08:48:04;4.50;;;0.90;;
10126;SDS011;13080;42.608;23.362;2023-10-09T08:50:32;3.53;;;1.00;;
10126;SDS011;13080;42.608;23.362;2023-10-09T08:53:00;3.15;;;1.45;;
10126;SDS011;13080;42.608;23.362;2023-10-09T08:55:28;2.30;;;0.95;;
10126;SDS011;13080;42.608;23.362;2023-10-09T08:57:55;3.55;;;1.10;;
10126;SDS011;13080;42.608;23.362;2023-10-09T09:00:24;1.92;;;0.90;;
10126;SDS011;13080;42.608;23.362;2023-10-09T09:02:58;3.00;;;1.08;;
10126;SDS011;13080;42.608;23.362;2023-10-09T09:05:26;3.45;;;1.00;;
10126;SDS011;13080;42.608;23.362;2023-10-09T09:07:54;1.33;;;0.80;;
10126;SDS011;13080;42.608;23.362;2023-10-09T09:10:27;2.80;;;0.70;;
10126;SDS011;13080;42.608;23.362;2023-10-09T09:13:00;1.27;;;0.90;;
10126;SDS011;13080;42.608;23.362;2023-10-09T09:15:30;1.40;;;0.88;;
10126;SDS011;13080;42.608;23.362;2023-10-09T09:18:04;1.48;;;1.02;;
10126;SDS011;13080;42.608;23.362;2023-10-09T09:20:35;1.52;;;0.70;;
10126;SDS011;13080;42.608;23.362;2023-10-09T09:23:05;2.08;;;0.80;;
10126;SDS011;13080;42.608;23.362;2023-10-09T09:28:11;2.78;;;0.65;;
10126;SDS011;13080;42.608;23.362;2023-10-09T09:30:46;1.50;;;0.93;;
10126;SDS011;13080;42.608;23.362;2023-10-09T09:33:19;1.00;;;0.57;;
10126;SDS011;13080;42.608;23.362;2023-10-09T09:35:58;1.38;;;0.90;;
10126;SDS011;13080;42.608;23.362;2023-10-09T09:38:27;0.90;;;0.50;;
10126;SDS011;13080;42.608;23.362;2023-10-09T09:41:00;1.70;;;0.90;;
10126;SDS011;13080;42.608;23.362;2023-10-09T09:43:32;3.30;;;0.75;;
10126;SDS011;13080;42.608;23.362;2023-10-09T09:46:03;4.75;;;0.93;;
10126;SDS011;13080;42.608;23.362;2023-10-09T09:48:33;1.10;;;0.57;;
10126;SDS011;13080;42.608;23.362;2023-10-09T09:51:10;5.25;;;1.02;;
10126;SDS011;13080;42.608;23.362;2023-10-09T09:53:40;3.20;;;1.05;;
10126;SDS011;13080;42.608;23.362;2023-10-09T09:56:07;6.03;;;0.90;;
10126;SDS011;13080;42.608;23.362;2023-10-09T09:58:41;0.80;;;0.50;;
10126;SDS011;13080;42.608;23.362;2023-10-09T10:01:13;2.30;;;0.70;;
10126;SDS011;13080;42.608;23.362;2023-10-09T10:03:48;2.03;;;0.75;;
10126;SDS011;13080;42.608;23.362;2023-10-09T10:06:21;4.90;;;1.08;;
10126;SDS011;13080;42.608;23.362;2023-10-09T10:08:51;1.75;;;1.02;;
10126;SDS011;13080;42.608;23.362;2023-10-09T10:14:10;3.10;;;0.77;;
10126;SDS011;13080;42.608;23.362;2023-10-09T10:20:02;2.10;;;0.98;;
10126;SDS011;13080;42.608;23.362;2023-10-09T10:22:45;2.03;;;1.00;;
10126;SDS011;13080;42.608;23.362;2023-10-09T10:28:16;2.13;;;0.80;;
10126;SDS011;13080;42.608;23.362;2023-10-09T10:30:53;2.78;;;0.80;;
10126;SDS011;13080;42.608;23.362;2023-10-09T10:33:22;1.90;;;1.50;;
10126;SDS011;13080;42.608;23.362;2023-10-09T10:35:51;2.00;;;1.00;;
10126;SDS011;13080;42.608;23.362;2023-10-09T10:38:27;6.32;;;1.00;;
10126;SDS011;13080;42.608;23.362;2023-10-09T10:41:14;2.25;;;0.90;;
10126;SDS011;13080;42.608;23.362;2023-10-09T10:43:47;1.40;;;0.65;;
10126;SDS011;13080;42.608;23.362;2023-10-09T10:46:24;2.13;;;0.88;;
10126;SDS011;13080;42.608;23.362;2023-10-09T10:49:01;1.38;;;0.70;;
10126;SDS011;13080;42.608;23.362;2023-10-09T10:51:40;1.13;;;0.80;;
10126;SDS011;13080;42.608;23.362;2023-10-09T10:54:19;1.88;;;0.90;;
10126;SDS011;13080;42.608;23.362;2023-10-09T10:57:17;2.80;;;1.38;;
10126;SDS011;13080;42.608;23.362;2023-10-09T10:59:45;2.22;;;1.23;;
10126;SDS011;13080;42.608;23.362;2023-10-09T11:02:14;5.72;;;0.90;;
10126;SDS011;13080;42.608;23.362;2023-10-09T11:04:49;1.73;;;1.00;;
10126;SDS011;13080;42.608;23.362;2023-10-09T11:07:39;2.20;;;1.10;;
10126;SDS011;13080;42.608;23.362;2023-10-09T11:10:06;1.48;;;1.00;;
10126;SDS011;13080;42.608;23.362;2023-10-09T11:12:44;1.75;;;0.77;;
10126;SDS011;13080;42.608;23.362;2023-10-09T11:15:32;3.15;;;1.08;;
10126;SDS011;13080;42.608;23.362;2023-10-09T11:18:09;1.23;;;0.80;;
10126;SDS011;13080;42.608;23.362;2023-10-09T11:20:46;2.50;;;0.82;;
10126;SDS011;13080;42.608;23.362;2023-10-09T11:23:21;3.13;;;1.00;;
10126;SDS011;13080;42.608;23.362;2023-10-09T11:26:01;3.22;;;1.15;;
10126;SDS011;13080;42.608;23.362;2023-10-09T11:28:46;1.88;;;0.93;;
10126;SDS011;13080;42.608;23.362;2023-10-09T11:31:17;1.80;;;0.85;;
10126;SDS011;13080;42.608;23.362;2023-10-09T11:33:46;2.53;;;0.95;;
10126;SDS011;13080;42.608;23.362;2023-10-09T11:36:18;2.55;;;0.90;;
10126;SDS011;13080;42.608;23.362;2023-10-09T11:38:56;1.90;;;1.17;;
10126;SDS011;13080;42.608;23.362;2023-10-09T11:41:39;3.70;;;1.13;;
10126;SDS011;13080;42.608;23.362;2023-10-09T11:44:06;1.88;;;0.95;;
10126;SDS011;13080;42.608;23.362;2023-10-09T11:46:47;1.08;;;0.70;;
10126;SDS011;13080;42.608;23.362;2023-10-09T11:49:23;4.68;;;1.13;;
10126;SDS011;13080;42.608;23.362;2023-10-09T11:52:10;3.60;;;1.10;;
10126;SDS011;13080;42.608;23.362;2023-10-09T11:54:55;2.63;;;1.10;;
10126;SDS011;13080;42.608;23.362;2023-10-09T11:57:26;2.53;;;0.98;;
10126;SDS011;13080;42.608;23.362;2023-10-09T11:59:59;1.90;;;1.00;;
10126;SDS011;13080;42.608;23.362;2023-10-09T12:02:54;6.32;;;1.13;;
10126;SDS011;13080;42.608;23.362;2023-10-09T12:05:21;1.52;;;0.70;;
10126;SDS011;13080;42.608;23.362;2023-10-09T12:07:54;2.60;;;0.85;;
10126;SDS011;13080;42.608;23.362;2023-10-09T12:10:22;6.38;;;2.17;;
10126;SDS011;13080;42.608;23.362;2023-10-09T12:12:51;3.30;;;1.73;;
10126;SDS011;13080;42.608;23.362;2023-10-09T12:15:18;5.32;;;1.40;;
10126;SDS011;13080;42.608;23.362;2023-10-09T12:17:46;8.15;;;1.50;;
10126;SDS011;13080;42.608;23.362;2023-10-09T12:22:58;3.80;;;1.40;;
10126;SDS011;13080;42.608;23.362;2023-10-09T12:25:26;5.72;;;2.00;;
10126;SDS011;13080;42.608;23.362;2023-10-09T12:27:56;2.90;;;1.63;;
10126;SDS011;13080;42.608;23.362;2023-10-09T12:30:23;4.07;;;1.17;;
10126;SDS011;13080;42.608;23.362;2023-10-09T12:32:53;2.50;;;1.13;;
10126;SDS011;13080;42.608;23.362;2023-10-09T12:35:22;3.38;;;1.35;;
10126;SDS011;13080;42.608;23.362;2023-10-09T12:37:50;2.28;;;1.30;;
10126;SDS011;13080;42.608;23.362;2023-10-09T12:40:19;6.30;;;1.73;;
10126;SDS011;13080;42.608;23.362;2023-10-09T12:45:17;3.25;;;0.80;;
10126;SDS011;13080;42.608;23.362;2023-10-09T12:47:51;3.20;;;0.80;;
10126;SDS011;13080;42.608;23.362;2023-10-09T12:50:19;1.83;;;0.90;;
10126;SDS011;13080;42.608;23.362;2023-10-09T12:52:53;6.60;;;0.80;;
10126;SDS011;13080;42.608;23.362;2023-10-09T12:55:22;3.33;;;0.80;;
10126;SDS011;13080;42.608;23.362;2023-10-09T12:57:57;1.42;;;0.70;;
10126;SDS011;13080;42.608;23.362;2023-10-09T13:00:29;4.95;;;1.30;;
10126;SDS011;13080;42.608;23.362;2023-10-09T13:02:57;1.52;;;0.80;;
10126;SDS011;13080;42.608;23.362;2023-10-09T13:05:26;1.30;;;0.63;;
10126;SDS011;13080;42.608;23.362;2023-10-09T13:07:53;3.13;;;0.70;;
10126;SDS011;13080;42.608;23.362;2023-10-09T13:10:23;1.77;;;0.80;;
10126;SDS011;13080;42.608;23.362;2023-10-09T13:12:50;3.83;;;0.70;;
10126;SDS011;13080;42.608;23.362;2023-10-09T13:15:21;9.38;;;1.00;;
10126;SDS011;13080;42.608;23.362;2023-10-09T13:17:48;3.03;;;0.70;;
10126;SDS011;13080;42.608;23.362;2023-10-09T13:20:18;2.45;;;0.77;;
10126;SDS011;13080;42.608;23.362;2023-10-09T13:22:46;2.97;;;0.80;;
10126;SDS011;13080;42.608;23.362;2023-10-09T13:25:14;5.32;;;1.17;;
10126;SDS011;13080;42.608;23.362;2023-10-09T13:27:43;4.00;;;0.90;;
10126;SDS011;13080;42.608;23.362;2023-10-09T13:30:16;2.42;;;0.95;;
10126;SDS011;13080;42.608;23.362;2023-10-09T13:32:48;1.70;;;0.90;;
10126;SDS011;13080;42.608;23.362;2023-10-09T13:35:16;2.90;;;0.73;;
10126;SDS011;13080;42.608;23.362;2023-10-09T13:37:44;2.83;;;0.95;;
10126;SDS011;13080;42.608;23.362;2023-10-09T13:40:19;3.78;;;0.85;;
10126;SDS011;13080;42.608;23.362;2023-10-09T13:42:54;2.30;;;0.95;;
10126;SDS011;13080;42.608;23.362;2023-10-09T13:45:24;1.73;;;0.70;;
10126;SDS011;13080;42.608;23.362;2023-10-09T13:47:53;3.15;;;0.88;;
10126;SDS011;13080;42.608;23.362;2023-10-09T13:50:23;1.98;;;1.05;;
10126;SDS011;13080;42.608;23.362;2023-10-09T13:52:54;7.82;;;1.33;;
10126;SDS011;13080;42.608;23.362;2023-10-09T13:55:21;5.43;;;0.90;;
10126;SDS011;13080;42.608;23.362;2023-10-09T13:57:54;2.88;;;1.10;;
10126;SDS011;13080;42.608;23.362;2023-10-09T14:00:22;1.67;;;0.80;;
10126;SDS011;13080;42.608;23.362;2023-10-09T14:02:59;3.03;;;1.00;;
10126;SDS011;13080;42.608;23.362;2023-10-09T14:05:36;3.25;;;0.85;;
10126;SDS011;13080;42.608;23.362;2023-10-09T14:08:17;6.43;;;1.17;;
10126;SDS011;13080;42.608;23.362;2023-10-09T14:10:47;4.80;;;0.93;;
10126;SDS011;13080;42.608;23.362;2023-10-09T14:13:15;2.00;;;1.08;;
10126;SDS011;13080;42.608;23.362;2023-10-09T14:15:51;2.63;;;1.10;;
10126;SDS011;13080;42.608;23.362;2023-10-09T14:18:19;3.67;;;1.45;;
10126;SDS011;13080;42.608;23.362;2023-10-09T14:20:47;2.55;;;0.90;;
10126;SDS011;13080;42.608;23.362;2023-10-09T14:23:15;3.47;;;1.17;;
10126;SDS011;13080;42.608;23.362;2023-10-09T14:25:46;4.00;;;1.08;;
10126;SDS011;13080;42.608;23.362;2023-10-09T14:28:16;4.07;;;1.20;;
10126;SDS011;13080;42.608;23.362;2023-10-09T14:30:44;5.82;;;1.75;;
10126;SDS011;13080;42.608;23.362;2023-10-09T14:33:15;4.30;;;1.50;;
10126;SDS011;13080;42.608;23.362;2023-10-09T14:35:48;4.75;;;1.25;;
10126;SDS011;13080;42.608;23.362;2023-10-09T14:38:17;4.55;;;1.60;;
10126;SDS011;13080;42.608;23.362;2023-10-09T14:40:51;3.42;;;1.10;;
10126;SDS011;13080;42.608;23.362;2023-10-09T14:43:24;2.80;;;1.50;;
10126;SDS011;13080;42.608;23.362;2023-10-09T14:45:53;5.43;;;1.65;;
10126;SDS011;13080;42.608;23.362;2023-10-09T14:48:21;6.03;;;1.88;;
10126;SDS011;13080;42.608;23.362;2023-10-09T14:50:51;3.15;;;1.27;;
10126;SDS011;13080;42.608;23.362;2023-10-09T14:53:19;2.38;;;1.30;;
10126;SDS011;13080;42.608;23.362;2023-10-09T14:55:53;4.78;;;1.20;;
10126;SDS011;13080;42.608;23.362;2023-10-09T14:58:20;5.72;;;1.23;;
10126;SDS011;13080;42.608;23.362;2023-10-09T15:00:51;3.40;;;1.20;;
10126;SDS011;13080;42.608;23.362;2023-10-09T15:03:19;3.78;;;1.20;;
10126;SDS011;13080;42.608;23.362;2023-10-09T15:05:48;3.65;;;1.35;;
10126;SDS011;13080;42.608;23.362;2023-10-09T15:08:14;3.17;;;1.50;;
10126;SDS011;13080;42.608;23.362;2023-10-09T15:10:46;3.50;;;1.30;;
10126;SDS011;13080;42.608;23.362;2023-10-09T15:13:13;4.57;;;1.58;;
10126;SDS011;13080;42.608;23.362;2023-10-09T15:15:41;5.35;;;1.70;;
10126;SDS011;13080;42.608;23.362;2023-10-09T15:18:10;2.85;;;1.35;;
10126;SDS011;13080;42.608;23.362;2023-10-09T15:20:38;5.47;;;1.73;;
10126;SDS011;13080;42.608;23.362;2023-10-09T15:23:06;4.57;;;1.70;;
10126;SDS011;13080;42.608;23.362;2023-10-09T15:25:33;9.07;;;1.95;;
10126;SDS011;13080;42.608;23.362;2023-10-09T15:28:04;4.10;;;1.65;;
10126;SDS011;13080;42.608;23.362;2023-10-09T15:30:32;6.20;;;1.88;;
10126;SDS011;13080;42.608;23.362;2023-10-09T15:32:59;7.13;;;2.70;;
10126;SDS011;13080;42.608;23.362;2023-10-09T15:35:28;7.70;;;2.13;;
10126;SDS011;13080;42.608;23.362;2023-10-09T15:37:55;5.13;;;1.50;;
10126;SDS011;13080;42.608;23.362;2023-10-09T15:40:22;4.68;;;1.45;;